Time;durP1;ratioP1;P1;durP2;ratioP2;P2;SDS_P1;SDS_P2;PMS_P1;PMS_P2;Temp;Humidity;BMP_temperature;BMP_pressure;BME280_temperature;BME280_humidity;BME280_pressure;Samples;Min_cycle;Max_cycle;Signal;HPM_P1;HPM_P2
2021/12/13 00:00:50;;;;;;;88.50;18.77;;;10.00;99.90;;;;;;4935140;29;20067;-67
2021/12/13 00:03:23;;;;;;;96.65;18.60;;;10.00;99.90;;;;;;4941106;29;20040;-67
2021/12/13 00:06:04;;;;;;;81.75;17.65;;;9.90;99.90;;;;;;4936277;29;20044;-67
2021/12/13 00:08:33;;;;;;;87.30;19.33;;;10.00;99.90;;;;;;4946338;29;20039;-67
2021/12/13 00:11:08;;;;;;;73.85;16.95;;;9.80;99.90;;;;;;4952416;29;20384;-67
2021/12/13 00:13:46;;;;;;;91.30;16.65;;;9.80;99.90;;;;;;4939129;29;20044;-67
2021/12/13 00:16:13;;;;;;;73.95;16.70;;;9.70;99.90;;;;;;4934698;28;20399;-67
2021/12/13 00:18:44;;;;;;;90.82;18.88;;;9.30;99.90;;;;;;4937693;29;20105;-67
2021/12/13 00:21:23;;;;;;;77.07;18.67;;;9.70;99.90;;;;;;4938750;28;20067;-67
2021/12/13 00:23:55;;;;;;;100.35;19.45;;;9.70;99.90;;;;;;4935902;28;20051;-67
2021/12/13 00:26:29;;;;;;;67.35;17.85;;;9.70;99.90;;;;;;4949756;29;20035;-67
2021/12/13 00:28:55;;;;;;;81.13;19.10;;;10.00;99.90;;;;;;4953180;28;20515;-67
2021/12/13 00:31:42;;;;;;;77.78;20.13;;;9.60;99.90;;;;;;4950382;28;20043;-67
2021/12/13 00:34:31;;;;;;;64.75;18.77;;;9.70;99.90;;;;;;4935895;29;20044;-70
2021/12/13 00:37:09;;;;;;;84.40;20.38;;;9.70;99.90;;;;;;4951558;29;20043;-70
2021/12/13 00:39:45;;;;;;;93.63;20.08;;;9.70;99.90;;;;;;4936487;29;20163;-71
2021/12/13 00:42:11;;;;;;;74.03;20.70;;;;;;;;;;4953876;28;20039;-71
2021/12/13 00:44:43;;;;;;;85.43;20.27;;;9.50;99.90;;;;;;4947270;28;20362;-71
2021/12/13 00:47:16;;;;;;;87.55;22.20;;;9.80;99.90;;;;;;4941246;29;20141;-71
2021/12/13 00:49:47;;;;;;;84.45;20.15;;;9.70;99.90;;;;;;4952926;29;20503;-71
2021/12/13 00:52:18;;;;;;;77.88;19.83;;;9.70;99.90;;;;;;4952983;29;20149;-71
2021/12/13 00:54:46;;;;;;;79.88;20.13;;;9.70;99.90;;;;;;4964001;28;20126;-71
2021/12/13 00:57:29;;;;;;;65.78;18.05;;;10.30;99.90;;;;;;4937439;29;20072;-71
2021/12/13 01:00:03;;;;;;;68.47;18.50;;;9.70;99.90;;;;;;4952604;28;20083;-70
2021/12/13 01:02:50;;;;;;;69.97;19.33;;;9.70;99.90;;;;;;4937530;29;20054;-70
2021/12/13 01:05:34;;;;;;;80.00;19.45;;;9.30;99.90;;;;;;4945301;29;20084;-71
2021/12/13 01:08:30;;;;;;;58.50;17.63;;;10.10;99.90;;;;;;4935356;29;20071;-70
2021/12/13 01:11:04;;;;;;;58.90;18.30;;;8.70;99.90;;;;;;4935727;29;20093;-70
2021/12/13 01:13:53;;;;;;;55.42;17.27;;;9.80;99.90;;;;;;4952150;28;20055;-70
2021/12/13 01:16:34;;;;;;;61.58;18.33;;;10.40;99.90;;;;;;4937404;28;20051;-70
2021/12/13 01:21:58;;;;;;;55.75;17.45;;;10.40;99.90;;;;;;4952449;28;20055;-70
2021/12/13 01:27:13;;;;;;;62.13;17.83;;;9.40;99.90;;;;;;4948109;28;20044;-70
2021/12/13 01:29:39;;;;;;;62.50;18.65;;;;;;;;;;4935152;29;20050;-71
2021/12/13 01:32:08;;;;;;;68.22;20.45;;;9.60;99.90;;;;;;4934938;29;20535;-71
2021/12/13 01:34:36;;;;;;;56.63;18.67;;;10.20;99.90;;;;;;4942480;28;20146;-71
2021/12/13 01:37:10;;;;;;;67.15;18.90;;;9.60;99.90;;;;;;4937779;29;20407;-71
2021/12/13 01:39:40;;;;;;;82.30;19.75;;;10.30;99.90;;;;;;4946664;28;20495;-70
2021/12/13 01:42:13;;;;;;;78.40;18.95;;;10.50;99.90;;;;;;4948968;28;20051;-71
2021/12/13 01:44:45;;;;;;;61.65;18.65;;;9.30;99.90;;;;;;4946161;29;20485;-71
2021/12/13 01:47:20;;;;;;;73.97;18.63;;;9.60;99.90;;;;;;4956645;28;20050;-71
2021/12/13 01:49:53;;;;;;;77.72;19.90;;;8.70;99.90;;;;;;4958280;28;20038;-71
2021/12/13 01:52:27;;;;;;;89.60;21.58;;;9.30;99.90;;;;;;4955645;28;20054;-71
2021/12/13 01:54:57;;;;;;;74.32;19.30;;;9.90;99.90;;;;;;4963829;28;20043;-71
2021/12/13 01:57:38;;;;;;;81.68;20.98;;;9.70;99.90;;;;;;4925197;29;20583;-71
2021/12/13 02:00:17;;;;;;;75.03;20.05;;;8.70;99.90;;;;;;4974018;28;20113;-70
2021/12/13 02:02:47;;;;;;;73.07;17.83;;;9.70;99.90;;;;;;4956042;28;20035;-71
2021/12/13 02:05:23;;;;;;;79.25;18.83;;;10.20;99.90;;;;;;4956987;28;20114;-71
2021/12/13 02:07:53;;;;;;;70.70;18.35;;;;;;;;;;4958411;28;20043;-71
2021/12/13 02:10:33;;;;;;;87.15;17.25;;;9.00;99.90;;;;;;4958251;28;20039;-71
2021/12/13 02:13:07;;;;;;;56.55;16.58;;;9.60;99.90;;;;;;4947337;28;20043;-71
2021/12/13 02:18:29;;;;;;;62.65;16.77;;;8.90;99.90;;;;;;4958081;28;20506;-71
2021/12/13 02:21:11;;;;;;;62.78;16.95;;;9.70;99.90;;;;;;4957197;28;20039;-70
2021/12/13 02:23:41;;;;;;;66.05;16.60;;;9.60;99.90;;;;;;4942041;29;20043;-70
2021/12/13 02:26:08;;;;;;;64.68;16.17;;;9.70;99.90;;;;;;4958192;28;20090;-71
2021/12/13 02:28:38;;;;;;;63.08;16.85;;;9.70;99.90;;;;;;4947960;28;20075;-70
2021/12/13 02:31:20;;;;;;;62.15;15.52;;;9.60;99.90;;;;;;4946872;28;20031;-71
2021/12/13 02:34:07;;;;;;;55.58;15.50;;;;;;;;;;4939099;29;20094;-70
2021/12/13 02:36:40;;;;;;;56.58;16.05;;;10.50;99.90;;;;;;4957495;28;20047;-70
2021/12/13 02:39:11;;;;;;;63.22;13.50;;;9.60;99.90;;;;;;4957113;28;20038;-70
2021/12/13 02:41:39;;;;;;;49.90;13.65;;;9.80;99.90;;;;;;4941195;29;20055;-70
2021/12/13 02:44:13;;;;;;;48.80;12.38;;;9.80;99.90;;;;;;4943787;29;20043;-70
2021/12/13 02:46:39;;;;;;;48.33;11.45;;;;;;;;;;4943280;28;20126;-70
2021/12/13 02:49:09;;;;;;;51.20;11.27;;;9.80;99.90;;;;;;4937323;29;20047;-70
2021/12/13 02:51:38;;;;;;;55.67;10.75;;;9.80;99.90;;;;;;4957914;28;20106;-69
2021/12/13 02:54:06;;;;;;;48.45;10.55;;;9.10;99.90;;;;;;4955985;28;20118;-70
2021/12/13 02:56:45;;;;;;;38.10;11.50;;;9.70;99.90;;;;;;4957391;28;20047;-70
2021/12/13 02:59:12;;;;;;;41.08;10.50;;;9.70;99.90;;;;;;4942576;28;20411;-70
2021/12/13 03:01:52;;;;;;;49.88;10.68;;;10.10;99.90;;;;;;4947112;29;20103;-70
2021/12/13 03:04:22;;;;;;;41.55;10.43;;;9.70;99.90;;;;;;4955717;29;20494;-71
2021/12/13 03:06:55;;;;;;;44.75;9.43;;;9.60;99.90;;;;;;4954771;29;20047;-72
2021/12/13 03:09:24;;;;;;;46.83;10.40;;;9.60;99.90;;;;;;4953471;28;20046;-73
2021/12/13 03:11:52;;;;;;;38.08;9.95;;;9.70;99.90;;;;;;4955083;28;20555;-73
2021/12/13 03:14:24;;;;;;;43.45;11.57;;;10.20;99.90;;;;;;4938553;29;20078;-73
2021/12/13 03:17:21;;;;;;;47.67;11.77;;;9.80;99.90;;;;;;4947085;28;20099;-73
2021/12/13 03:20:19;;;;;;;44.22;11.82;;;10.10;99.90;;;;;;4937739;29;20119;-73
2021/12/13 03:23:12;;;;;;;38.92;10.35;;;10.40;99.90;;;;;;4951310;28;20090;-73
2021/12/13 03:26:04;;;;;;;37.13;9.77;;;9.90;99.90;;;;;;4954498;28;20045;-73
2021/12/13 03:29:04;;;;;;;30.97;10.03;;;9.60;99.90;;;;;;4935522;28;20515;-73
2021/12/13 03:31:59;;;;;;;39.35;9.38;;;9.60;99.90;;;;;;4921216;29;20201;-73
2021/12/13 03:34:35;;;;;;;41.17;9.32;;;10.10;99.90;;;;;;4949714;29;20086;-70
2021/12/13 03:37:08;;;;;;;34.35;9.95;;;9.60;99.90;;;;;;4952483;29;20078;-70
2021/12/13 03:39:42;;;;;;;37.58;9.70;;;9.60;99.90;;;;;;4953918;28;20101;-70
2021/12/13 03:42:15;;;;;;;37.08;9.13;;;9.50;99.90;;;;;;4952650;29;20118;-70
2021/12/13 03:44:47;;;;;;;33.00;8.75;;;9.50;99.90;;;;;;4953295;28;20035;-70
2021/12/13 03:47:35;;;;;;;30.25;8.93;;;9.50;99.90;;;;;;4950617;28;20043;-70
2021/12/13 03:50:09;;;;;;;37.60;9.88;;;10.10;99.90;;;;;;4953280;29;20054;-70
2021/12/13 03:52:38;;;;;;;45.00;10.23;;;10.40;99.90;;;;;;4945061;28;20542;-71
2021/12/13 03:55:05;;;;;;;29.42;9.63;;;8.80;99.90;;;;;;4954360;28;20043;-70
2021/12/13 03:57:31;;;;;;;25.77;9.30;;;10.00;99.90;;;;;;4940349;28;20420;-70
2021/12/13 03:59:59;;;;;;;29.25;8.85;;;10.20;99.90;;;;;;4937427;29;20077;-71
2021/12/13 04:02:34;;;;;;;22.70;8.50;;;9.30;99.90;;;;;;4966703;28;20087;-70
2021/12/13 04:05:08;;;;;;;24.95;8.25;;;9.60;99.90;;;;;;4947877;28;20043;-70
2021/12/13 04:07:55;;;;;;;30.92;8.95;;;9.80;99.90;;;;;;4952069;28;20042;-70
2021/12/13 04:10:25;;;;;;;25.98;7.18;;;8.60;99.90;;;;;;4953311;28;20035;-71
2021/12/13 04:12:54;;;;;;;23.20;7.25;;;9.60;99.90;;;;;;4949672;29;20118;-71
2021/12/13 04:15:30;;;;;;;24.88;7.90;;;9.40;99.90;;;;;;4945551;28;20043;-70
2021/12/13 04:18:12;;;;;;;21.98;6.95;;;10.20;99.90;;;;;;4953577;28;20403;-70
2021/12/13 04:20:41;;;;;;;22.83;5.93;;;9.50;99.90;;;;;;4952922;28;20120;-70
2021/12/13 04:23:13;;;;;;;14.95;6.00;;;9.60;99.90;;;;;;4951752;29;20039;-70
2021/12/13 04:25:43;;;;;;;24.50;6.25;;;9.30;99.90;;;;;;4950758;28;20035;-70
2021/12/13 04:28:15;;;;;;;18.05;5.30;;;;;;;;;;4953604;28;20035;-70
2021/12/13 04:30:46;;;;;;;12.10;5.28;;;;;;;;;;4953287;28;20399;-70
2021/12/13 04:33:37;;;;;;;14.85;5.13;;;9.40;99.90;;;;;;4951300;28;20047;-70
2021/12/13 04:36:10;;;;;;;19.75;6.07;;;9.20;99.90;;;;;;4953336;28;20035;-70
2021/12/13 04:39:01;;;;;;;22.10;7.00;;;9.40;99.90;;;;;;4953224;28;20058;-70
2021/12/13 04:41:30;;;;;;;15.45;5.40;;;9.10;99.90;;;;;;4937581;29;20102;-70
2021/12/13 04:44:04;;;;;;;15.40;5.28;;;8.50;99.90;;;;;;4946645;28;20047;-70
2021/12/13 04:46:34;;;;;;;15.20;5.00;;;10.10;99.90;;;;;;4940230;29;20027;-70
2021/12/13 04:49:15;;;;;;;16.17;5.70;;;8.60;99.90;;;;;;4949789;28;20035;-70
2021/12/13 04:51:46;;;;;;;15.63;4.60;;;9.50;99.90;;;;;;4937701;29;20048;-70
2021/12/13 04:54:14;;;;;;;16.33;4.72;;;10.20;99.90;;;;;;4936736;29;20053;-70
2021/12/13 04:56:41;;;;;;;11.38;5.20;;;9.20;99.90;;;;;;4936610;28;20056;-70
2021/12/13 04:59:10;;;;;;;20.63;5.20;;;9.10;99.90;;;;;;4935409;29;20050;-70
2021/12/13 05:01:36;;;;;;;16.42;5.82;;;;;;;;;;4940106;28;20118;-70
2021/12/13 05:04:05;;;;;;;14.45;6.03;;;9.40;99.90;;;;;;4938928;29;20082;-70
2021/12/13 05:06:34;;;;;;;18.13;7.22;;;9.40;99.90;;;;;;4951472;28;20038;-70
2021/12/13 05:09:03;;;;;;;18.95;6.65;;;9.90;99.90;;;;;;4952607;28;20047;-70
2021/12/13 05:11:36;;;;;;;18.90;7.53;;;9.00;99.90;;;;;;4935534;29;20035;-70
2021/12/13 05:14:04;;;;;;;13.98;7.20;;;9.30;99.90;;;;;;4936477;29;20039;-70
2021/12/13 05:16:54;;;;;;;17.85;7.25;;;9.30;99.90;;;;;;4935169;29;20124;-70
2021/12/13 05:19:34;;;;;;;17.70;7.40;;;9.90;99.90;;;;;;4942526;28;20054;-70
2021/12/13 05:22:02;;;;;;;13.02;7.55;;;9.30;99.90;;;;;;4949205;28;20035;-70
2021/12/13 05:24:31;;;;;;;16.17;7.65;;;9.40;99.90;;;;;;4936934;29;20094;-70
2021/12/13 05:27:08;;;;;;;14.98;8.45;;;9.50;99.90;;;;;;4951335;29;20491;-70
2021/12/13 05:29:35;;;;;;;13.63;8.23;;;9.80;99.90;;;;;;4952250;29;20103;-70
2021/12/13 05:32:05;;;;;;;20.38;9.05;;;;;;;;;;4941158;28;20074;-70
2021/12/13 05:35:01;;;;;;;17.20;8.90;;;8.70;99.90;;;;;;4936827;29;20046;-70
2021/12/13 05:37:42;;;;;;;19.00;8.55;;;9.60;99.90;;;;;;4939443;29;20055;-70
2021/12/13 05:40:12;;;;;;;18.10;9.15;;;9.20;99.90;;;;;;4953956;28;20051;-70
2021/12/13 05:42:44;;;;;;;18.92;9.25;;;9.10;99.90;;;;;;4941967;29;20079;-70
2021/12/13 05:45:14;;;;;;;15.10;9.50;;;9.70;99.90;;;;;;4954040;29;20122;-70
2021/12/13 05:48:02;;;;;;;22.08;9.80;;;9.10;99.90;;;;;;4948425;28;20506;-70
2021/12/13 05:50:54;;;;;;;18.25;9.90;;;9.20;99.90;;;;;;4953602;28;20054;-70
2021/12/13 05:53:24;;;;;;;15.87;10.23;;;9.70;99.90;;;;;;4932335;29;20142;-70
2021/12/13 05:56:08;;;;;;;24.48;10.75;;;8.90;99.90;;;;;;4944944;28;20047;-70
2021/12/13 05:58:45;;;;;;;25.00;11.50;;;9.50;99.90;;;;;;4952464;28;20044;-70
2021/12/13 06:01:17;;;;;;;20.77;10.60;;;9.90;99.90;;;;;;4936560;29;20047;-70
2021/12/13 06:03:50;;;;;;;19.60;10.63;;;10.00;99.90;;;;;;4949892;29;20400;-70
2021/12/13 06:06:24;;;;;;;22.90;11.65;;;8.40;99.90;;;;;;4934604;29;20523;-70
2021/12/13 06:08:53;;;;;;;17.60;10.63;;;9.30;99.90;;;;;;4935202;29;20074;-70
2021/12/13 06:11:33;;;;;;;21.83;10.10;;;9.00;99.90;;;;;;4938744;29;20050;-70
2021/12/13 06:14:20;;;;;;;19.00;10.32;;;8.30;99.90;;;;;;4941201;29;20050;-69
2021/12/13 06:17:06;;;;;;;21.83;10.68;;;9.00;99.90;;;;;;4941449;29;20050;-70
2021/12/13 06:20:01;;;;;;;20.30;10.70;;;8.20;99.90;;;;;;4918801;29;20083;-70
2021/12/13 06:22:30;;;;;;;18.65;10.90;;;8.70;99.90;;;;;;4934184;29;20221;-70
2021/12/13 06:25:01;;;;;;;16.85;10.73;;;9.80;99.90;;;;;;4934685;29;20055;-70
2021/12/13 06:27:43;;;;;;;19.23;11.10;;;10.00;99.90;;;;;;4937493;28;20103;-70
2021/12/13 06:30:11;;;;;;;14.68;10.32;;;8.50;99.90;;;;;;4953656;28;20047;-70
2021/12/13 06:33:06;;;;;;;19.55;10.57;;;9.10;99.90;;;;;;4941877;29;20511;-70
2021/12/13 06:35:37;;;;;;;21.75;11.13;;;8.30;99.90;;;;;;4931313;29;20146;-72
2021/12/13 06:38:29;;;;;;;17.95;11.07;;;9.10;99.90;;;;;;4939432;29;20063;-72
2021/12/13 06:41:07;;;;;;;24.92;11.38;;;8.80;99.90;;;;;;4938481;29;20055;-73
2021/12/13 06:43:40;;;;;;;24.25;11.55;;;8.60;99.90;;;;;;4958204;28;20039;-72
2021/12/13 06:46:31;;;;;;;17.13;10.63;;;9.20;99.90;;;;;;4938055;29;20392;-73
2021/12/13 06:49:11;;;;;;;22.27;11.63;;;8.10;99.90;;;;;;4949405;28;20094;-72
2021/12/13 06:51:49;;;;;;;19.05;11.27;;;8.50;99.90;;;;;;4948237;29;20047;-72
2021/12/13 06:54:29;;;;;;;22.13;11.52;;;8.90;99.90;;;;;;4937853;29;20054;-72
2021/12/13 06:57:10;;;;;;;21.05;10.95;;;9.10;99.90;;;;;;4939073;28;20396;-72
2021/12/13 06:59:45;;;;;;;26.15;12.55;;;9.80;99.90;;;;;;4940096;29;20052;-72
2021/12/13 07:02:18;;;;;;;27.30;12.30;;;9.10;99.90;;;;;;4938835;29;20102;-72
2021/12/13 07:04:54;;;;;;;23.23;12.27;;;8.20;99.90;;;;;;4946420;29;20097;-72
2021/12/13 07:07:26;;;;;;;25.98;12.93;;;9.00;99.90;;;;;;4956633;28;20109;-72
2021/12/13 07:10:04;;;;;;;22.60;13.02;;;9.10;99.90;;;;;;4955891;28;20042;-72
2021/12/13 07:12:31;;;;;;;19.15;13.00;;;9.60;99.90;;;;;;4926432;29;20176;-69
2021/12/13 07:14:58;;;;;;;21.98;13.02;;;9.90;99.90;;;;;;4956691;28;20051;-70
2021/12/13 07:17:28;;;;;;;23.48;13.95;;;9.80;99.90;;;;;;4970739;28;20067;-70
2021/12/13 07:19:54;;;;;;;22.80;12.70;;;;;;;;;;4954825;29;20054;-70
2021/12/13 07:22:24;;;;;;;21.88;14.20;;;;;;;;;;4957275;28;20046;-70
2021/12/13 07:25:12;;;;;;;21.63;13.45;;;8.90;99.90;;;;;;4955971;28;20046;-70
2021/12/13 07:27:48;;;;;;;29.90;13.98;;;8.90;99.90;;;;;;4955804;28;20043;-70
2021/12/13 07:30:26;;;;;;;24.70;14.48;;;8.80;99.90;;;;;;4937784;29;20039;-70
2021/12/13 07:32:59;;;;;;;23.77;14.70;;;8.90;99.90;;;;;;4937449;29;20078;-70
2021/12/13 07:35:41;;;;;;;27.80;14.57;;;9.00;99.90;;;;;;4937211;29;20101;-70
2021/12/13 07:38:17;;;;;;;26.65;14.85;;;9.20;99.90;;;;;;4937072;29;20051;-69
2021/12/13 07:40:45;;;;;;;21.27;14.75;;;9.20;99.90;;;;;;4938048;29;20060;-70
2021/12/13 07:43:23;;;;;;;24.35;14.68;;;9.20;99.90;;;;;;4941468;29;20050;-69
2021/12/13 07:45:49;;;;;;;25.17;14.85;;;;;;;;;;4943682;29;20047;-69
2021/12/13 07:48:35;;;;;;;26.90;16.00;;;9.00;99.90;;;;;;4947070;29;20074;-69
2021/12/13 07:51:10;;;;;;;25.58;16.10;;;9.60;99.90;;;;;;4943398;29;20464;-69
2021/12/13 07:53:58;;;;;;;27.25;15.88;;;9.20;99.90;;;;;;4947747;28;20115;-69
2021/12/13 07:56:29;;;;;;;27.77;16.52;;;9.30;99.90;;;;;;4947440;28;20078;-71
2021/12/13 07:59:10;;;;;;;31.77;15.80;;;9.40;99.90;;;;;;4946345;28;20047;-71
2021/12/13 08:01:42;;;;;;;28.10;15.77;;;;;;;;;;4954955;28;20090;-71
2021/12/13 08:04:22;;;;;;;26.35;16.23;;;9.60;99.90;;;;;;4953830;28;20059;-71
2021/12/13 08:07:09;;;;;;;29.35;15.95;;;8.40;99.90;;;;;;4953760;29;20565;-71
2021/12/13 08:09:46;;;;;;;27.65;15.98;;;9.30;99.90;;;;;;4945825;28;20062;-71
2021/12/13 08:12:17;;;;;;;25.63;15.98;;;8.70;99.90;;;;;;4936460;29;20035;-72
2021/12/13 08:14:46;;;;;;;25.63;14.90;;;9.20;99.90;;;;;;4936212;29;20094;-69
2021/12/13 08:17:31;;;;;;;23.83;15.77;;;9.10;99.90;;;;;;4935519;29;20366;-70
2021/12/13 08:20:05;;;;;;;24.88;16.30;;;9.80;99.90;;;;;;4921220;29;20468;-69
2021/12/13 08:22:31;;;;;;;29.75;16.67;;;9.10;99.90;;;;;;4923127;29;20472;-69
2021/12/13 08:25:06;;;;;;;25.75;15.57;;;8.80;99.90;;;;;;4955183;28;20058;-70
2021/12/13 08:27:38;;;;;;;25.88;16.13;;;9.70;99.90;;;;;;4955236;28;20039;-71
2021/12/13 08:30:12;;;;;;;26.52;15.57;;;9.30;99.90;;;;;;4953314;28;20047;-72
2021/12/13 08:33:01;;;;;;;27.25;15.70;;;9.10;99.90;;;;;;4951150;28;20051;-72
2021/12/13 08:35:45;;;;;;;25.58;15.13;;;9.30;99.90;;;;;;4951750;28;20043;-72
2021/12/13 08:38:11;;;;;;;20.85;14.70;;;;;;;;;;4923673;29;20039;-72
2021/12/13 08:40:45;;;;;;;23.88;14.77;;;10.00;99.90;;;;;;4940372;29;20126;-72
2021/12/13 08:43:11;;;;;;;22.95;14.75;;;;;;;;;;4940703;28;20047;-72
2021/12/13 08:45:40;;;;;;;26.75;14.75;;;;;;;;;;4933751;29;20082;-72
2021/12/13 08:48:16;;;;;;;24.45;14.50;;;9.10;99.90;;;;;;4935183;29;20047;-72
2021/12/13 08:50:53;;;;;;;22.20;14.55;;;9.30;99.90;;;;;;4936826;29;20048;-72
2021/12/13 08:53:35;;;;;;;23.55;14.48;;;9.20;99.90;;;;;;4939768;28;20102;-71
2021/12/13 08:56:00;;;;;;;23.58;15.00;;;;;;;;;;4936009;29;20075;-72
2021/12/13 08:58:26;;;;;;;21.23;14.45;;;8.50;99.90;;;;;;4935434;29;20515;-72
2021/12/13 09:01:10;;;;;;;25.13;13.82;;;9.30;99.90;;;;;;4936731;29;20134;-72
2021/12/13 09:03:36;;;;;;;22.95;13.98;;;;;;;;;;4936692;29;20035;-72
2021/12/13 09:06:14;;;;;;;22.65;14.05;;;8.90;99.90;;;;;;4935385;29;20042;-72
2021/12/13 09:08:51;;;;;;;22.08;13.15;;;9.40;99.90;;;;;;4935611;29;20074;-72
2021/12/13 09:11:41;;;;;;;21.38;14.27;;;9.40;99.90;;;;;;4936334;29;20484;-72
2021/12/13 09:14:19;;;;;;;24.70;13.32;;;9.50;99.90;;;;;;4951043;29;20077;-72
2021/12/13 09:17:06;;;;;;;20.65;12.30;;;9.30;99.90;;;;;;4926496;29;20047;-72
2021/12/13 09:19:40;;;;;;;20.00;12.50;;;9.40;99.90;;;;;;4943294;28;20054;-75
2021/12/13 09:22:30;;;;;;;21.25;13.52;;;8.60;99.90;;;;;;4937544;29;20046;-72
2021/12/13 09:25:02;;;;;;;24.75;12.88;;;;;;;;;;4950692;28;20118;-72
2021/12/13 09:27:29;;;;;;;18.08;12.45;;;;;;;;;;4952588;28;20043;-72
2021/12/13 09:30:00;;;;;;;21.25;12.35;;;9.40;99.90;;;;;;4935862;29;20062;-72
2021/12/13 09:32:39;;;;;;;18.33;12.90;;;9.00;99.90;;;;;;4941475;29;20106;-72
2021/12/13 09:35:32;;;;;;;23.60;12.85;;;9.80;99.90;;;;;;4945185;29;20049;-72
2021/12/13 09:38:21;;;;;;;18.02;12.27;;;9.70;99.90;;;;;;4938443;28;20051;-72
2021/12/13 09:41:01;;;;;;;22.13;12.65;;;9.30;99.90;;;;;;4935946;29;20135;-72
2021/12/13 09:43:46;;;;;;;18.67;11.75;;;9.20;99.90;;;;;;4937861;29;20079;-72
2021/12/13 09:46:16;;;;;;;20.73;12.05;;;9.20;99.90;;;;;;4943187;28;20040;-71
2021/12/13 09:48:49;;;;;;;17.88;12.38;;;9.30;99.90;;;;;;4952192;28;20550;-73
2021/12/13 09:51:26;;;;;;;18.05;11.63;;;9.30;99.90;;;;;;4936415;28;20563;-72
2021/12/13 09:53:55;;;;;;;21.52;12.10;;;9.40;99.90;;;;;;4957441;28;20078;-72
2021/12/13 09:56:24;;;;;;;23.35;12.80;;;10.00;99.90;;;;;;4953998;28;20130;-72
2021/12/13 09:58:55;;;;;;;19.50;12.00;;;9.40;99.90;;;;;;4955665;28;20035;-72
2021/12/13 10:01:26;;;;;;;21.95;12.45;;;9.40;99.90;;;;;;4953900;29;20043;-72
2021/12/13 10:03:57;;;;;;;18.25;11.75;;;9.40;99.90;;;;;;4954181;28;20039;-71
2021/12/13 10:06:56;;;;;;;19.00;11.98;;;9.30;99.90;;;;;;4954206;29;20524;-71
2021/12/13 10:09:36;;;;;;;20.08;11.52;;;9.30;99.90;;;;;;4957328;28;20055;-71
2021/12/13 10:12:15;;;;;;;30.95;12.07;;;9.30;99.90;;;;;;4941839;28;20097;-71
2021/12/13 10:14:48;;;;;;;22.65;10.65;;;9.30;99.90;;;;;;4958078;28;20173;-71
2021/12/13 10:17:17;;;;;;;28.67;12.10;;;;;;;;;;4957633;28;20122;-71
2021/12/13 10:19:48;;;;;;;20.73;11.15;;;;;;;;;;4957430;28;20055;-71
2021/12/13 10:22:19;;;;;;;18.02;11.07;;;9.50;99.90;;;;;;4957411;28;20043;-71
2021/12/13 10:24:50;;;;;;;17.05;11.30;;;9.40;99.90;;;;;;4957433;29;20487;-71
2021/12/13 10:27:18;;;;;;;17.40;10.73;;;9.40;99.90;;;;;;4941709;29;20049;-71
2021/12/13 10:29:49;;;;;;;23.70;10.65;;;9.40;99.90;;;;;;4956021;28;20452;-71
2021/12/13 10:32:28;;;;;;;20.95;11.70;;;9.40;99.90;;;;;;4955808;28;20178;-71
2021/12/13 10:35:04;;;;;;;19.95;11.35;;;9.40;99.90;;;;;;4957097;28;20039;-71
2021/12/13 10:37:36;;;;;;;18.80;11.30;;;9.50;99.90;;;;;;4957399;29;20392;-71
2021/12/13 10:40:19;;;;;;;20.77;11.38;;;9.90;99.90;;;;;;4956777;28;20103;-71
2021/12/13 10:43:08;;;;;;;22.65;12.15;;;9.30;99.90;;;;;;4957159;28;20134;-71
2021/12/13 10:45:48;;;;;;;17.50;11.82;;;9.30;99.90;;;;;;4956710;28;20093;-71
2021/12/13 10:48:15;;;;;;;20.10;12.05;;;8.40;99.90;;;;;;4957062;29;20388;-71
2021/12/13 10:50:49;;;;;;;21.10;12.27;;;9.40;99.90;;;;;;4957064;29;20047;-71
2021/12/13 10:53:19;;;;;;;19.70;12.73;;;9.30;99.90;;;;;;4956992;28;20488;-71
2021/12/13 10:55:56;;;;;;;22.27;12.30;;;9.70;99.90;;;;;;4957202;28;20489;-71
2021/12/13 10:58:27;;;;;;;20.80;12.43;;;9.10;99.90;;;;;;4956727;28;20043;-71
2021/12/13 11:01:02;;;;;;;26.75;13.52;;;9.50;99.90;;;;;;4956596;28;20051;-71
2021/12/13 11:03:30;;;;;;;21.85;13.35;;;9.60;99.90;;;;;;4956726;28;20484;-71
2021/12/13 11:05:57;;;;;;;25.05;12.63;;;9.30;99.90;;;;;;4956583;28;20491;-72
2021/12/13 11:08:28;;;;;;;25.17;15.38;;;9.50;99.90;;;;;;4956587;28;20039;-71
2021/12/13 11:11:04;;;;;;;25.83;14.15;;;9.50;99.90;;;;;;4956576;28;20043;-71
2021/12/13 11:13:32;;;;;;;22.00;12.88;;;;;;;;;;4957783;28;20135;-71
2021/12/13 11:16:08;;;;;;;22.92;12.82;;;9.50;99.90;;;;;;4956578;29;20509;-71
2021/12/13 11:18:35;;;;;;;22.15;13.82;;;;;;;;;;4956234;28;20043;-71
2021/12/13 11:21:10;;;;;;;20.52;12.93;;;9.50;99.90;;;;;;4955373;28;20082;-71
2021/12/13 11:23:37;;;;;;;20.90;13.13;;;;;;;;;;4956288;28;20575;-71
2021/12/13 11:26:06;;;;;;;28.95;13.60;;;10.50;99.90;;;;;;4956738;28;20432;-71
2021/12/13 11:28:35;;;;;;;25.58;13.23;;;9.70;99.90;;;;;;4955297;28;20090;-71
2021/12/13 11:31:29;;;;;;;31.73;14.98;;;9.70;99.90;;;;;;4956091;28;20085;-71
2021/12/13 11:34:01;;;;;;;24.45;13.05;;;10.20;99.90;;;;;;4936507;28;20059;-71
2021/12/13 11:37:06;;;;;;;23.33;13.27;;;8.90;99.90;;;;;;4956182;28;20083;-71
2021/12/13 11:40:10;;;;;;;21.10;12.90;;;9.20;99.90;;;;;;4940521;28;20182;-71
2021/12/13 11:42:42;;;;;;;23.80;13.23;;;;;;;;;;4956100;28;20082;-71
2021/12/13 11:45:34;;;;;;;24.55;12.30;;;10.40;99.90;;;;;;4956025;28;20126;-71
2021/12/13 11:48:27;;;;;;;22.00;12.68;;;10.00;99.90;;;;;;4937862;29;20488;-71
2021/12/13 11:51:20;;;;;;;24.50;12.10;;;9.60;99.90;;;;;;4956014;28;20044;-71
2021/12/13 11:54:07;;;;;;;22.05;11.95;;;10.60;99.90;;;;;;4957226;28;20054;-71
2021/12/13 11:57:10;;;;;;;21.75;11.52;;;9.80;99.90;;;;;;4955731;28;20051;-71
2021/12/13 11:59:55;;;;;;;19.92;11.68;;;;;;;;;;4939716;29;20043;-71
2021/12/13 12:02:50;;;;;;;24.15;13.10;;;10.20;99.90;;;;;;4939733;28;20083;-71
2021/12/13 12:05:44;;;;;;;21.65;11.90;;;10.10;99.90;;;;;;4950277;28;20106;-71
2021/12/13 12:08:44;;;;;;;16.98;11.50;;;10.50;99.90;;;;;;4939621;28;20043;-71
2021/12/13 12:11:23;;;;;;;20.25;10.57;;;10.10;99.90;;;;;;4939531;29;20079;-71
2021/12/13 12:14:02;;;;;;;18.73;10.60;;;10.10;99.90;;;;;;4955748;28;20047;-71
2021/12/13 12:16:28;;;;;;;21.70;11.02;;;9.90;99.90;;;;;;4955604;28;20559;-71
2021/12/13 12:18:56;;;;;;;16.63;10.35;;;;;;;;;;4955774;28;20392;-71
2021/12/13 12:21:44;;;;;;;17.75;10.30;;;10.30;99.90;;;;;;4955498;29;20130;-71
2021/12/13 12:24:10;;;;;;;18.05;10.68;;;;;;;;;;4955162;28;20043;-71
2021/12/13 12:26:37;;;;;;;18.52;10.25;;;10.10;99.90;;;;;;4955564;28;20085;-71
2021/12/13 12:29:11;;;;;;;18.70;10.00;;;10.30;99.90;;;;;;4955555;28;20049;-71
2021/12/13 12:31:43;;;;;;;19.85;9.57;;;10.80;99.90;;;;;;4954898;28;20043;-71
2021/12/13 12:34:11;;;;;;;24.25;10.60;;;10.90;99.90;;;;;;4955145;29;20047;-71
2021/12/13 12:36:42;;;;;;;19.13;11.27;;;10.50;99.90;;;;;;4955281;28;20398;-72
2021/12/13 12:39:46;;;;;;;23.42;10.98;;;10.20;99.90;;;;;;4954962;28;20081;-71
2021/12/13 12:42:32;;;;;;;23.17;10.48;;;9.80;99.90;;;;;;4939972;28;20142;-71
2021/12/13 12:45:03;;;;;;;22.60;11.63;;;10.90;99.90;;;;;;4954853;28;20082;-71
2021/12/13 12:47:35;;;;;;;22.07;11.40;;;10.20;99.90;;;;;;4955240;28;20407;-71
2021/12/13 12:50:16;;;;;;;19.25;10.48;;;10.30;99.90;;;;;;4955233;28;20510;-71
2021/12/13 12:52:52;;;;;;;18.33;10.43;;;10.30;99.90;;;;;;4955166;28;20047;-71
2021/12/13 12:55:22;;;;;;;21.27;10.48;;;10.10;99.90;;;;;;4954824;28;20507;-71
2021/12/13 12:57:48;;;;;;;18.52;10.27;;;11.00;99.90;;;;;;4955114;29;20392;-71
2021/12/13 13:00:20;;;;;;;17.25;10.27;;;10.20;99.90;;;;;;4954695;28;20051;-71
2021/12/13 13:02:46;;;;;;;18.55;10.05;;;11.00;99.90;;;;;;4954938;28;20051;-72
2021/12/13 13:05:12;;;;;;;22.10;10.23;;;;;;;;;;4937032;29;20036;-74
2021/12/13 13:07:39;;;;;;;22.67;9.85;;;10.40;99.90;;;;;;4946045;28;20046;-73
2021/12/13 13:12:57;;;;;;;22.00;10.13;;;9.40;99.90;;;;;;4954562;28;20073;-72
2021/12/13 13:15:30;;;;;;;25.58;10.27;;;10.40;99.90;;;;;;4935992;29;20400;-72
2021/12/13 13:18:06;;;;;;;14.23;9.38;;;10.40;99.90;;;;;;4919601;29;20051;-72
2021/12/13 13:20:36;;;;;;;23.27;10.85;;;;;;;;;;4934989;29;20048;-73
2021/12/13 13:23:03;;;;;;;18.63;10.68;;;10.10;99.90;;;;;;4919241;29;20437;-73
2021/12/13 13:25:34;;;;;;;20.45;10.02;;;10.30;99.90;;;;;;4962569;28;20093;-73
2021/12/13 13:28:04;;;;;;;23.92;12.63;;;10.20;99.90;;;;;;4956628;28;20047;-73
2021/12/13 13:30:37;;;;;;;21.05;11.20;;;10.90;99.90;;;;;;4972859;28;20043;-73
2021/12/13 13:33:04;;;;;;;26.95;11.90;;;;;;;;;;4972609;28;20053;-73
2021/12/13 13:35:30;;;;;;;23.23;12.30;;;;;;;;;;4941339;28;20160;-73
2021/12/13 13:37:56;;;;;;;24.67;12.25;;;10.20;99.90;;;;;;4934708;29;20039;-73
2021/12/13 13:40:29;;;;;;;27.92;12.68;;;10.10;99.90;;;;;;4933924;29;20083;-73